sensor_id;sensor_type;location;lat;lon;timestamp;pressure;altitude;pressure_sealevel;temperature
71205;BMP180;58935;54.498;18.544;2023-11-19T00:02:08;101043.60;;;2.60
71205;BMP180;58935;54.498;18.544;2023-11-19T00:04:36;101046.00;;;2.60
71205;BMP180;58935;54.498;18.544;2023-11-19T00:07:05;101038.80;;;2.60
71205;BMP180;58935;54.498;18.544;2023-11-19T00:09:33;101034.60;;;2.60
71205;BMP180;58935;54.498;18.544;2023-11-19T00:11:59;101030.00;;;2.60
71205;BMP180;58935;54.498;18.544;2023-11-19T00:14:26;101026.00;;;2.60
71205;BMP180;58935;54.498;18.544;2023-11-19T00:16:51;101022.80;;;2.60
71205;BMP180;58935;54.498;18.544;2023-11-19T00:19:17;101013.20;;;2.54
71205;BMP180;58935;54.498;18.544;2023-11-19T00:21:42;101011.00;;;2.50
71205;BMP180;58935;54.498;18.544;2023-11-19T00:24:12;101007.60;;;2.50
71205;BMP180;58935;54.498;18.544;2023-11-19T00:26:38;101013.00;;;2.50
71205;BMP180;58935;54.498;18.544;2023-11-19T00:29:04;101005.80;;;2.50
71205;BMP180;58935;54.498;18.544;2023-11-19T00:31:29;101003.60;;;2.50
71205;BMP180;58935;54.498;18.544;2023-11-19T00:33:55;101005.40;;;2.44
71205;BMP180;58935;54.498;18.544;2023-11-19T00:36:22;101007.00;;;2.40
71205;BMP180;58935;54.498;18.544;2023-11-19T00:38:49;101005.40;;;2.40
71205;BMP180;58935;54.498;18.544;2023-11-19T00:41:15;100999.00;;;2.40
71205;BMP180;58935;54.498;18.544;2023-11-19T00:43:41;100999.40;;;2.40
71205;BMP180;58935;54.498;18.544;2023-11-19T00:46:07;101005.40;;;2.40
71205;BMP180;58935;54.498;18.544;2023-11-19T00:48:35;101010.40;;;2.46
71205;BMP180;58935;54.498;18.544;2023-11-19T00:51:03;101006.20;;;2.44
71205;BMP180;58935;54.498;18.544;2023-11-19T00:53:29;101008.20;;;2.40
71205;BMP180;58935;54.498;18.544;2023-11-19T00:55:55;101005.00;;;2.30
71205;BMP180;58935;54.498;18.544;2023-11-19T00:58:20;101007.00;;;2.30
71205;BMP180;58935;54.498;18.544;2023-11-19T01:00:45;100999.20;;;2.20
71205;BMP180;58935;54.498;18.544;2023-11-19T01:03:11;100997.80;;;2.10
71205;BMP180;58935;54.498;18.544;2023-11-19T01:05:37;100998.20;;;2.10
71205;BMP180;58935;54.498;18.544;2023-11-19T01:08:02;101002.00;;;2.10
71205;BMP180;58935;54.498;18.544;2023-11-19T01:10:29;100997.60;;;2.10
71205;BMP180;58935;54.498;18.544;2023-11-19T01:12:55;100991.20;;;2.10
71205;BMP180;58935;54.498;18.544;2023-11-19T01:15:20;100990.20;;;2.10
71205;BMP180;58935;54.498;18.544;2023-11-19T01:17:48;100983.20;;;2.18
71205;BMP180;58935;54.498;18.544;2023-11-19T01:20:16;100974.60;;;2.20
71205;BMP180;58935;54.498;18.544;2023-11-19T01:22:42;100960.20;;;2.20
71205;BMP180;58935;54.498;18.544;2023-11-19T01:25:11;100960.00;;;2.20
71205;BMP180;58935;54.498;18.544;2023-11-19T01:27:38;100960.80;;;2.24
71205;BMP180;58935;54.498;18.544;2023-11-19T01:30:04;100958.80;;;2.30
71205;BMP180;58935;54.498;18.544;2023-11-19T01:32:30;100950.20;;;2.30
71205;BMP180;58935;54.498;18.544;2023-11-19T01:34:56;100949.80;;;2.30
71205;BMP180;58935;54.498;18.544;2023-11-19T01:37:23;100947.60;;;2.30
71205;BMP180;58935;54.498;18.544;2023-11-19T01:39:51;100947.80;;;2.32
71205;BMP180;58935;54.498;18.544;2023-11-19T01:42:19;100950.80;;;2.40
71205;BMP180;58935;54.498;18.544;2023-11-19T01:44:56;100949.20;;;2.40
71205;BMP180;58935;54.498;18.544;2023-11-19T01:47:22;100941.00;;;2.40
71205;BMP180;58935;54.498;18.544;2023-11-19T01:49:48;100937.00;;;2.40
71205;BMP180;58935;54.498;18.544;2023-11-19T01:52:13;100928.80;;;2.48
71205;BMP180;58935;54.498;18.544;2023-11-19T01:54:42;100926.20;;;2.50
71205;BMP180;58935;54.498;18.544;2023-11-19T01:57:12;100925.60;;;2.50
71205;BMP180;58935;54.498;18.544;2023-11-19T01:59:40;100921.40;;;2.54
71205;BMP180;58935;54.498;18.544;2023-11-19T02:02:07;100917.20;;;2.60
71205;BMP180;58935;54.498;18.544;2023-11-19T02:04:40;100916.40;;;2.50
71205;BMP180;58935;54.498;18.544;2023-11-19T02:07:06;100924.00;;;2.50
71205;BMP180;58935;54.498;18.544;2023-11-19T02:09:32;100917.20;;;2.50
71205;BMP180;58935;54.498;18.544;2023-11-19T02:11:58;100910.00;;;2.40
71205;BMP180;58935;54.498;18.544;2023-11-19T02:14:27;100894.00;;;2.40
71205;BMP180;58935;54.498;18.544;2023-11-19T02:16:53;100888.40;;;2.34
71205;BMP180;58935;54.498;18.544;2023-11-19T02:19:19;100877.00;;;2.32
71205;BMP180;58935;54.498;18.544;2023-11-19T02:21:45;100865.60;;;2.40
71205;BMP180;58935;54.498;18.544;2023-11-19T02:24:11;100863.60;;;2.40
71205;BMP180;58935;54.498;18.544;2023-11-19T02:26:44;100859.40;;;2.34
71205;BMP180;58935;54.498;18.544;2023-11-19T02:29:11;100849.40;;;2.40
71205;BMP180;58935;54.498;18.544;2023-11-19T02:31:36;100847.40;;;2.38
71205;BMP180;58935;54.498;18.544;2023-11-19T02:34:02;100841.80;;;2.30
71205;BMP180;58935;54.498;18.544;2023-11-19T02:36:28;100839.20;;;2.30
71205;BMP180;58935;54.498;18.544;2023-11-19T02:38:53;100832.20;;;2.36
71205;BMP180;58935;54.498;18.544;2023-11-19T02:41:21;100829.00;;;2.32
71205;BMP180;58935;54.498;18.544;2023-11-19T02:43:46;100830.20;;;2.30
71205;BMP180;58935;54.498;18.544;2023-11-19T02:46:13;100826.40;;;2.30
71205;BMP180;58935;54.498;18.544;2023-11-19T02:48:39;100821.40;;;2.30
71205;BMP180;58935;54.498;18.544;2023-11-19T02:51:07;100815.40;;;2.30
71205;BMP180;58935;54.498;18.544;2023-11-19T02:53:35;100807.60;;;2.30
71205;BMP180;58935;54.498;18.544;2023-11-19T02:56:00;100810.60;;;2.30
71205;BMP180;58935;54.498;18.544;2023-11-19T02:58:34;100798.20;;;2.30
71205;BMP180;58935;54.498;18.544;2023-11-19T03:01:00;100801.00;;;2.30
71205;BMP180;58935;54.498;18.544;2023-11-19T03:03:44;100795.80;;;2.30
71205;BMP180;58935;54.498;18.544;2023-11-19T03:06:14;100794.80;;;2.24
71205;BMP180;58935;54.498;18.544;2023-11-19T03:08:40;100787.40;;;2.20
71205;BMP180;58935;54.498;18.544;2023-11-19T03:11:07;100782.60;;;2.20
71205;BMP180;58935;54.498;18.544;2023-11-19T03:13:35;100782.20;;;2.20
71205;BMP180;58935;54.498;18.544;2023-11-19T03:16:00;100777.00;;;2.20
71205;BMP180;58935;54.498;18.544;2023-11-19T03:18:26;100781.80;;;2.20
71205;BMP180;58935;54.498;18.544;2023-11-19T03:20:53;100774.00;;;2.20
71205;BMP180;58935;54.498;18.544;2023-11-19T03:23:24;100771.60;;;2.20
71205;BMP180;58935;54.498;18.544;2023-11-19T03:25:51;100765.40;;;2.20
71205;BMP180;58935;54.498;18.544;2023-11-19T03:28:17;100765.60;;;2.20
71205;BMP180;58935;54.498;18.544;2023-11-19T03:30:42;100758.60;;;2.20
71205;BMP180;58935;54.498;18.544;2023-11-19T03:33:10;100754.80;;;2.14
71205;BMP180;58935;54.498;18.544;2023-11-19T03:35:35;100752.80;;;2.10
71205;BMP180;58935;54.498;18.544;2023-11-19T03:38:02;100749.20;;;2.10
71205;BMP180;58935;54.498;18.544;2023-11-19T03:40:28;100742.40;;;2.00
71205;BMP180;58935;54.498;18.544;2023-11-19T03:42:56;100737.00;;;2.00
71205;BMP180;58935;54.498;18.544;2023-11-19T03:45:21;100736.80;;;2.00
71205;BMP180;58935;54.498;18.544;2023-11-19T03:47:46;100726.20;;;1.90
71205;BMP180;58935;54.498;18.544;2023-11-19T03:50:14;100713.40;;;1.90
71205;BMP180;58935;54.498;18.544;2023-11-19T03:52:41;100700.40;;;1.86
71205;BMP180;58935;54.498;18.544;2023-11-19T03:55:06;100691.40;;;1.80
71205;BMP180;58935;54.498;18.544;2023-11-19T03:57:34;100687.00;;;1.72
71205;BMP180;58935;54.498;18.544;2023-11-19T03:59:59;100684.40;;;1.70
71205;BMP180;58935;54.498;18.544;2023-11-19T04:02:25;100687.60;;;1.68
71205;BMP180;58935;54.498;18.544;2023-11-19T04:04:53;100688.60;;;1.60
71205;BMP180;58935;54.498;18.544;2023-11-19T04:07:19;100684.80;;;1.60
71205;BMP180;58935;54.498;18.544;2023-11-19T04:09:45;100686.80;;;1.60
71205;BMP180;58935;54.498;18.544;2023-11-19T04:12:12;100680.60;;;1.60
71205;BMP180;58935;54.498;18.544;2023-11-19T04:14:37;100674.40;;;1.60
71205;BMP180;58935;54.498;18.544;2023-11-19T04:17:05;100663.80;;;1.56
71205;BMP180;58935;54.498;18.544;2023-11-19T04:19:32;100658.40;;;1.50
71205;BMP180;58935;54.498;18.544;2023-11-19T04:22:00;100653.60;;;1.50
71205;BMP180;58935;54.498;18.544;2023-11-19T04:24:25;100648.80;;;1.50
71205;BMP180;58935;54.498;18.544;2023-11-19T04:26:53;100639.80;;;1.50
71205;BMP180;58935;54.498;18.544;2023-11-19T04:29:21;100639.60;;;1.46
71205;BMP180;58935;54.498;18.544;2023-11-19T04:31:46;100632.60;;;1.40
71205;BMP180;58935;54.498;18.544;2023-11-19T04:34:12;100620.80;;;1.40
71205;BMP180;58935;54.498;18.544;2023-11-19T04:36:37;100608.80;;;1.40
71205;BMP180;58935;54.498;18.544;2023-11-19T04:39:04;100605.00;;;1.30
71205;BMP180;58935;54.498;18.544;2023-11-19T04:41:35;100611.80;;;1.30
71205;BMP180;58935;54.498;18.544;2023-11-19T04:44:01;100611.20;;;1.30
71205;BMP180;58935;54.498;18.544;2023-11-19T04:46:27;100606.80;;;1.30
71205;BMP180;58935;54.498;18.544;2023-11-19T04:48:52;100604.20;;;1.30
71205;BMP180;58935;54.498;18.544;2023-11-19T04:51:18;100602.00;;;1.20
71205;BMP180;58935;54.498;18.544;2023-11-19T04:53:43;100597.00;;;1.20
71205;BMP180;58935;54.498;18.544;2023-11-19T04:56:09;100588.20;;;1.20
71205;BMP180;58935;54.498;18.544;2023-11-19T04:58:35;100580.00;;;1.20
71205;BMP180;58935;54.498;18.544;2023-11-19T05:01:03;100578.20;;;1.10
71205;BMP180;58935;54.498;18.544;2023-11-19T05:03:29;100578.60;;;1.10
71205;BMP180;58935;54.498;18.544;2023-11-19T05:05:56;100578.00;;;1.10
71205;BMP180;58935;54.498;18.544;2023-11-19T05:08:21;100577.40;;;1.10
71205;BMP180;58935;54.498;18.544;2023-11-19T05:10:47;100585.20;;;1.10
71205;BMP180;58935;54.498;18.544;2023-11-19T05:13:14;100581.40;;;1.08
71205;BMP180;58935;54.498;18.544;2023-11-19T05:15:42;100577.20;;;1.00
71205;BMP180;58935;54.498;18.544;2023-11-19T05:18:08;100581.00;;;1.00
71205;BMP180;58935;54.498;18.544;2023-11-19T05:20:34;100580.00;;;1.00
71205;BMP180;58935;54.498;18.544;2023-11-19T05:22:59;100579.00;;;1.00
71205;BMP180;58935;54.498;18.544;2023-11-19T05:25:26;100570.00;;;0.94
71205;BMP180;58935;54.498;18.544;2023-11-19T05:27:52;100568.80;;;0.90
71205;BMP180;58935;54.498;18.544;2023-11-19T05:30:17;100568.40;;;0.90
71205;BMP180;58935;54.498;18.544;2023-11-19T05:32:45;100564.00;;;0.88
71205;BMP180;58935;54.498;18.544;2023-11-19T05:35:11;100563.40;;;0.80
71205;BMP180;58935;54.498;18.544;2023-11-19T05:37:37;100560.60;;;0.80
71205;BMP180;58935;54.498;18.544;2023-11-19T05:40:03;100548.80;;;0.78
71205;BMP180;58935;54.498;18.544;2023-11-19T05:42:31;100545.60;;;0.70
71205;BMP180;58935;54.498;18.544;2023-11-19T05:44:57;100538.40;;;0.70
71205;BMP180;58935;54.498;18.544;2023-11-19T05:47:25;100539.20;;;0.70
71205;BMP180;58935;54.498;18.544;2023-11-19T05:49:50;100532.80;;;0.70
71205;BMP180;58935;54.498;18.544;2023-11-19T05:52:15;100534.40;;;0.60
71205;BMP180;58935;54.498;18.544;2023-11-19T05:54:41;100532.80;;;0.60
71205;BMP180;58935;54.498;18.544;2023-11-19T05:57:07;100535.60;;;0.60
71205;BMP180;58935;54.498;18.544;2023-11-19T05:59:35;100531.00;;;0.60
71205;BMP180;58935;54.498;18.544;2023-11-19T06:02:03;100531.60;;;0.60
71205;BMP180;58935;54.498;18.544;2023-11-19T06:04:29;100528.60;;;0.60
71205;BMP180;58935;54.498;18.544;2023-11-19T06:06:56;100521.20;;;0.60
71205;BMP180;58935;54.498;18.544;2023-11-19T06:09:24;100512.20;;;0.50
71205;BMP180;58935;54.498;18.544;2023-11-19T06:11:52;100504.20;;;0.50
71205;BMP180;58935;54.498;18.544;2023-11-19T06:14:18;100505.60;;;0.50
71205;BMP180;58935;54.498;18.544;2023-11-19T06:16:46;100497.60;;;0.50
71205;BMP180;58935;54.498;18.544;2023-11-19T06:19:13;100499.00;;;0.46
71205;BMP180;58935;54.498;18.544;2023-11-19T06:21:39;100498.80;;;0.44
71205;BMP180;58935;54.498;18.544;2023-11-19T06:24:06;100499.80;;;0.40
71205;BMP180;58935;54.498;18.544;2023-11-19T06:26:35;100505.80;;;0.40
71205;BMP180;58935;54.498;18.544;2023-11-19T06:29:00;100502.20;;;0.40
71205;BMP180;58935;54.498;18.544;2023-11-19T06:31:26;100501.80;;;0.40
71205;BMP180;58935;54.498;18.544;2023-11-19T06:33:51;100501.80;;;0.40
71205;BMP180;58935;54.498;18.544;2023-11-19T06:36:19;100497.20;;;0.40
71205;BMP180;58935;54.498;18.544;2023-11-19T06:38:44;100492.60;;;0.40
71205;BMP180;58935;54.498;18.544;2023-11-19T06:41:09;100489.20;;;0.40
71205;BMP180;58935;54.498;18.544;2023-11-19T06:43:36;100481.40;;;0.40
71205;BMP180;58935;54.498;18.544;2023-11-19T06:46:02;100475.00;;;0.40
71205;BMP180;58935;54.498;18.544;2023-11-19T06:48:27;100469.80;;;0.40
71205;BMP180;58935;54.498;18.544;2023-11-19T06:50:53;100472.00;;;0.40
71205;BMP180;58935;54.498;18.544;2023-11-19T06:53:18;100472.40;;;0.40
71205;BMP180;58935;54.498;18.544;2023-11-19T06:55:44;100468.00;;;0.40
71205;BMP180;58935;54.498;18.544;2023-11-19T06:58:09;100469.00;;;0.40
71205;BMP180;58935;54.498;18.544;2023-11-19T07:00:37;100468.60;;;0.40
71205;BMP180;58935;54.498;18.544;2023-11-19T07:03:02;100467.60;;;0.36
71205;BMP180;58935;54.498;18.544;2023-11-19T07:05:28;100459.40;;;0.34
71205;BMP180;58935;54.498;18.544;2023-11-19T07:07:53;100454.80;;;0.34
71205;BMP180;58935;54.498;18.544;2023-11-19T07:10:20;100456.60;;;0.34
71205;BMP180;58935;54.498;18.544;2023-11-19T07:12:45;100447.60;;;0.32
71205;BMP180;58935;54.498;18.544;2023-11-19T07:15:10;100443.80;;;0.40
71205;BMP180;58935;54.498;18.544;2023-11-19T07:17:38;100443.00;;;0.40
71205;BMP180;58935;54.498;18.544;2023-11-19T07:20:05;100441.60;;;0.40
71205;BMP180;58935;54.498;18.544;2023-11-19T07:22:31;100438.80;;;0.42
71205;BMP180;58935;54.498;18.544;2023-11-19T07:24:57;100425.60;;;0.48
71205;BMP180;58935;54.498;18.544;2023-11-19T07:27:22;100425.60;;;0.50
71205;BMP180;58935;54.498;18.544;2023-11-19T07:29:49;100414.00;;;0.50
71205;BMP180;58935;54.498;18.544;2023-11-19T07:32:14;100413.80;;;0.54
71205;BMP180;58935;54.498;18.544;2023-11-19T07:34:42;100405.20;;;0.60
71205;BMP180;58935;54.498;18.544;2023-11-19T07:37:10;100407.20;;;0.60
71205;BMP180;58935;54.498;18.544;2023-11-19T07:39:35;100402.60;;;0.60
71205;BMP180;58935;54.498;18.544;2023-11-19T07:42:03;100405.60;;;0.60
71205;BMP180;58935;54.498;18.544;2023-11-19T07:44:28;100399.40;;;0.60
71205;BMP180;58935;54.498;18.544;2023-11-19T07:46:56;100397.60;;;0.60
71205;BMP180;58935;54.498;18.544;2023-11-19T07:49:22;100394.60;;;0.60
71205;BMP180;58935;54.498;18.544;2023-11-19T07:51:47;100390.20;;;0.60
71205;BMP180;58935;54.498;18.544;2023-11-19T07:54:13;100382.40;;;0.60
71205;BMP180;58935;54.498;18.544;2023-11-19T07:56:39;100374.00;;;0.60
71205;BMP180;58935;54.498;18.544;2023-11-19T07:59:05;100377.40;;;0.68
71205;BMP180;58935;54.498;18.544;2023-11-19T08:01:30;100367.40;;;0.70
71205;BMP180;58935;54.498;18.544;2023-11-19T08:03:55;100370.00;;;0.70
71205;BMP180;58935;54.498;18.544;2023-11-19T08:06:21;100366.20;;;0.72
71205;BMP180;58935;54.498;18.544;2023-11-19T08:08:47;100360.40;;;0.80
71205;BMP180;58935;54.498;18.544;2023-11-19T08:11:13;100353.20;;;0.80
71205;BMP180;58935;54.498;18.544;2023-11-19T08:13:38;100346.80;;;0.80
71205;BMP180;58935;54.498;18.544;2023-11-19T08:16:04;100339.40;;;0.80
71205;BMP180;58935;54.498;18.544;2023-11-19T08:18:30;100340.60;;;0.80
71205;BMP180;58935;54.498;18.544;2023-11-19T08:20:56;100335.20;;;0.80
71205;BMP180;58935;54.498;18.544;2023-11-19T08:23:23;100338.60;;;0.80
71205;BMP180;58935;54.498;18.544;2023-11-19T08:25:50;100339.40;;;0.80
71205;BMP180;58935;54.498;18.544;2023-11-19T08:28:16;100339.80;;;0.80
71205;BMP180;58935;54.498;18.544;2023-11-19T08:30:41;100339.80;;;0.80
71205;BMP180;58935;54.498;18.544;2023-11-19T08:33:09;100322.60;;;0.86
71205;BMP180;58935;54.498;18.544;2023-11-19T08:35:34;100319.60;;;0.90
71205;BMP180;58935;54.498;18.544;2023-11-19T08:38:00;100318.40;;;0.90
71205;BMP180;58935;54.498;18.544;2023-11-19T08:40:25;100305.80;;;0.90
71205;BMP180;58935;54.498;18.544;2023-11-19T08:42:51;100304.40;;;1.00
71205;BMP180;58935;54.498;18.544;2023-11-19T08:45:17;100300.40;;;1.00
71205;BMP180;58935;54.498;18.544;2023-11-19T08:47:42;100298.60;;;1.10
71205;BMP180;58935;54.498;18.544;2023-11-19T08:50:11;100288.60;;;1.10
71205;BMP180;58935;54.498;18.544;2023-11-19T08:52:36;100286.80;;;1.10
71205;BMP180;58935;54.498;18.544;2023-11-19T08:55:02;100279.40;;;1.20
71205;BMP180;58935;54.498;18.544;2023-11-19T08:57:28;100282.40;;;1.20
71205;BMP180;58935;54.498;18.544;2023-11-19T08:59:53;100278.00;;;1.30
71205;BMP180;58935;54.498;18.544;2023-11-19T09:02:19;100277.40;;;1.30
71205;BMP180;58935;54.498;18.544;2023-11-19T09:04:44;100266.40;;;1.38
71205;BMP180;58935;54.498;18.544;2023-11-19T09:07:10;100270.00;;;1.40
71205;BMP180;58935;54.498;18.544;2023-11-19T09:09:35;100272.00;;;1.40
71205;BMP180;58935;54.498;18.544;2023-11-19T09:12:02;100268.80;;;1.50
71205;BMP180;58935;54.498;18.544;2023-11-19T09:14:30;100262.60;;;1.50
71205;BMP180;58935;54.498;18.544;2023-11-19T09:16:56;100264.20;;;1.50
71205;BMP180;58935;54.498;18.544;2023-11-19T09:19:21;100257.40;;;1.60
71205;BMP180;58935;54.498;18.544;2023-11-19T09:21:47;100251.20;;;1.64
71205;BMP180;58935;54.498;18.544;2023-11-19T09:24:13;100249.20;;;1.72
71205;BMP180;58935;54.498;18.544;2023-11-19T09:26:38;100241.80;;;1.80
71205;BMP180;58935;54.498;18.544;2023-11-19T09:29:07;100242.80;;;1.80
71205;BMP180;58935;54.498;18.544;2023-11-19T09:31:33;100230.20;;;1.90
71205;BMP180;58935;54.498;18.544;2023-11-19T09:33:59;100228.80;;;1.90
71205;BMP180;58935;54.498;18.544;2023-11-19T09:36:24;100227.80;;;1.98
71205;BMP180;58935;54.498;18.544;2023-11-19T09:38:50;100229.00;;;1.94
71205;BMP180;58935;54.498;18.544;2023-11-19T09:41:15;100226.20;;;1.98
71205;BMP180;58935;54.498;18.544;2023-11-19T09:43:43;100224.60;;;2.00
71205;BMP180;58935;54.498;18.544;2023-11-19T09:46:10;100221.60;;;2.00
71205;BMP180;58935;54.498;18.544;2023-11-19T09:48:38;100215.60;;;2.08
71205;BMP180;58935;54.498;18.544;2023-11-19T09:51:04;100212.00;;;2.10
71205;BMP180;58935;54.498;18.544;2023-11-19T09:53:30;100213.60;;;2.00
71205;BMP180;58935;54.498;18.544;2023-11-19T09:55:58;100214.00;;;2.00
71205;BMP180;58935;54.498;18.544;2023-11-19T09:58:25;100207.00;;;2.00
71205;BMP180;58935;54.498;18.544;2023-11-19T10:00:53;100208.20;;;2.10
71205;BMP180;58935;54.498;18.544;2023-11-19T10:03:19;100204.20;;;2.10
71205;BMP180;58935;54.498;18.544;2023-11-19T10:05:44;100206.40;;;2.10
71205;BMP180;58935;54.498;18.544;2023-11-19T10:08:09;100199.40;;;2.10
71205;BMP180;58935;54.498;18.544;2023-11-19T10:10:39;100198.60;;;2.10
71205;BMP180;58935;54.498;18.544;2023-11-19T10:13:04;100191.20;;;2.10
71205;BMP180;58935;54.498;18.544;2023-11-19T10:15:36;100182.40;;;2.10
71205;BMP180;58935;54.498;18.544;2023-11-19T10:18:02;100185.60;;;2.10
71205;BMP180;58935;54.498;18.544;2023-11-19T10:20:34;100181.20;;;2.10
71205;BMP180;58935;54.498;18.544;2023-11-19T10:23:00;100167.60;;;2.00
71205;BMP180;58935;54.498;18.544;2023-11-19T10:25:26;100162.00;;;2.00
71205;BMP180;58935;54.498;18.544;2023-11-19T10:27:53;100151.80;;;2.00
71205;BMP180;58935;54.498;18.544;2023-11-19T10:30:26;100146.60;;;2.00
71205;BMP180;58935;54.498;18.544;2023-11-19T10:35:23;100133.00;;;2.00
71205;BMP180;58935;54.498;18.544;2023-11-19T10:37:51;100128.20;;;2.00
71205;BMP180;58935;54.498;18.544;2023-11-19T10:40:16;100132.60;;;2.00
71205;BMP180;58935;54.498;18.544;2023-11-19T10:42:43;100121.20;;;2.02
71205;BMP180;58935;54.498;18.544;2023-11-19T10:45:22;100121.20;;;2.00
71205;BMP180;58935;54.498;18.544;2023-11-19T10:47:48;100110.60;;;2.02
71205;BMP180;58935;54.498;18.544;2023-11-19T10:50:14;100110.20;;;2.00
71205;BMP180;58935;54.498;18.544;2023-11-19T10:52:40;100107.40;;;2.00
71205;BMP180;58935;54.498;18.544;2023-11-19T10:55:08;100104.20;;;1.96
71205;BMP180;58935;54.498;18.544;2023-11-19T10:57:36;100094.60;;;1.90
71205;BMP180;58935;54.498;18.544;2023-11-19T11:00:04;100098.60;;;1.86
71205;BMP180;58935;54.498;18.544;2023-11-19T11:02:42;100096.60;;;1.80
71205;BMP180;58935;54.498;18.544;2023-11-19T11:05:14;100092.40;;;1.84
71205;BMP180;58935;54.498;18.544;2023-11-19T11:07:40;100087.20;;;1.90
71205;BMP180;58935;54.498;18.544;2023-11-19T11:10:07;100083.20;;;1.90
71205;BMP180;58935;54.498;18.544;2023-11-19T11:12:36;100080.60;;;1.90
71205;BMP180;58935;54.498;18.544;2023-11-19T11:15:05;100075.00;;;1.90
71205;BMP180;58935;54.498;18.544;2023-11-19T11:17:32;100075.40;;;1.90
71205;BMP180;58935;54.498;18.544;2023-11-19T11:20:01;100070.00;;;1.90
71205;BMP180;58935;54.498;18.544;2023-11-19T11:22:28;100056.00;;;1.90
71205;BMP180;58935;54.498;18.544;2023-11-19T11:25:11;100054.40;;;1.90
71205;BMP180;58935;54.498;18.544;2023-11-19T11:27:48;100045.80;;;1.90
71205;BMP180;58935;54.498;18.544;2023-11-19T11:30:39;100036.00;;;1.90
71205;BMP180;58935;54.498;18.544;2023-11-19T11:35:54;100035.40;;;1.90
71205;BMP180;58935;54.498;18.544;2023-11-19T11:38:22;100027.60;;;1.90
71205;BMP180;58935;54.498;18.544;2023-11-19T11:45:52;100016.20;;;1.80
71205;BMP180;58935;54.498;18.544;2023-11-19T11:48:21;100011.60;;;1.80
71205;BMP180;58935;54.498;18.544;2023-11-19T11:50:52;100006.40;;;1.80
71205;BMP180;58935;54.498;18.544;2023-11-19T11:53:19;99994.60;;;1.82
71205;BMP180;58935;54.498;18.544;2023-11-19T11:55:52;99992.60;;;1.90
71205;BMP180;58935;54.498;18.544;2023-11-19T11:58:19;99985.80;;;1.88
71205;BMP180;58935;54.498;18.544;2023-11-19T12:00:47;99979.20;;;1.82
71205;BMP180;58935;54.498;18.544;2023-11-19T12:03:12;99976.00;;;1.80
71205;BMP180;58935;54.498;18.544;2023-11-19T12:05:43;99974.80;;;1.82
71205;BMP180;58935;54.498;18.544;2023-11-19T12:08:12;99967.20;;;1.86
71205;BMP180;58935;54.498;18.544;2023-11-19T12:10:45;99960.00;;;1.90
71205;BMP180;58935;54.498;18.544;2023-11-19T12:13:16;99954.60;;;1.90
71205;BMP180;58935;54.498;18.544;2023-11-19T12:18:18;99950.80;;;1.90
71205;BMP180;58935;54.498;18.544;2023-11-19T12:20:44;99942.00;;;1.90
71205;BMP180;58935;54.498;18.544;2023-11-19T12:23:12;99936.00;;;1.90
71205;BMP180;58935;54.498;18.544;2023-11-19T12:25:42;99937.00;;;1.90
71205;BMP180;58935;54.498;18.544;2023-11-19T12:28:13;99933.80;;;1.90
71205;BMP180;58935;54.498;18.544;2023-11-19T12:30:38;99929.40;;;1.90
71205;BMP180;58935;54.498;18.544;2023-11-19T12:33:08;99928.40;;;1.90
71205;BMP180;58935;54.498;18.544;2023-11-19T12:35:41;99923.60;;;1.90
71205;BMP180;58935;54.498;18.544;2023-11-19T12:38:07;99918.80;;;1.90
71205;BMP180;58935;54.498;18.544;2023-11-19T12:40:34;99911.20;;;1.90
71205;BMP180;58935;54.498;18.544;2023-11-19T12:43:00;99905.40;;;1.90
71205;BMP180;58935;54.498;18.544;2023-11-19T12:45:34;99902.40;;;1.90
71205;BMP180;58935;54.498;18.544;2023-11-19T12:48:05;99897.60;;;1.80
71205;BMP180;58935;54.498;18.544;2023-11-19T12:50:53;99893.80;;;1.80
71205;BMP180;58935;54.498;18.544;2023-11-19T12:53:19;99892.60;;;1.80
71205;BMP180;58935;54.498;18.544;2023-11-19T12:55:46;99891.00;;;1.80
71205;BMP180;58935;54.498;18.544;2023-11-19T13:00:45;99884.60;;;1.80
71205;BMP180;58935;54.498;18.544;2023-11-19T13:03:29;99879.80;;;1.80
71205;BMP180;58935;54.498;18.544;2023-11-19T13:06:08;99872.00;;;1.80
71205;BMP180;58935;54.498;18.544;2023-11-19T13:08:37;99869.80;;;1.80
71205;BMP180;58935;54.498;18.544;2023-11-19T13:11:03;99865.80;;;1.80
71205;BMP180;58935;54.498;18.544;2023-11-19T13:13:29;99866.00;;;1.80
71205;BMP180;58935;54.498;18.544;2023-11-19T13:16:03;99858.00;;;1.76
71205;BMP180;58935;54.498;18.544;2023-11-19T13:18:30;99855.60;;;1.70
71205;BMP180;58935;54.498;18.544;2023-11-19T13:20:56;99849.60;;;1.70
71205;BMP180;58935;54.498;18.544;2023-11-19T13:23:22;99844.40;;;1.70
71205;BMP180;58935;54.498;18.544;2023-11-19T13:25:48;99845.40;;;1.70
71205;BMP180;58935;54.498;18.544;2023-11-19T13:28:16;99840.00;;;1.70
71205;BMP180;58935;54.498;18.544;2023-11-19T13:30:42;99841.40;;;1.70
71205;BMP180;58935;54.498;18.544;2023-11-19T13:33:07;99837.80;;;1.70
71205;BMP180;58935;54.498;18.544;2023-11-19T13:35:32;99838.40;;;1.70
71205;BMP180;58935;54.498;18.544;2023-11-19T13:37:58;99836.60;;;1.70
71205;BMP180;58935;54.498;18.544;2023-11-19T13:40:26;99834.00;;;1.70
71205;BMP180;58935;54.498;18.544;2023-11-19T13:42:54;99838.80;;;1.70
71205;BMP180;58935;54.498;18.544;2023-11-19T13:45:22;99830.00;;;1.70
71205;BMP180;58935;54.498;18.544;2023-11-19T13:47:49;99828.80;;;1.70
71205;BMP180;58935;54.498;18.544;2023-11-19T13:50:16;99826.80;;;1.70
71205;BMP180;58935;54.498;18.544;2023-11-19T13:52:45;99820.60;;;1.68
71205;BMP180;58935;54.498;18.544;2023-11-19T13:55:13;99816.80;;;1.66
71205;BMP180;58935;54.498;18.544;2023-11-19T13:57:39;99807.60;;;1.70
71205;BMP180;58935;54.498;18.544;2023-11-19T14:00:07;99815.40;;;1.70
71205;BMP180;58935;54.498;18.544;2023-11-19T14:02:40;99814.00;;;1.70
71205;BMP180;58935;54.498;18.544;2023-11-19T14:05:07;99817.60;;;1.70
71205;BMP180;58935;54.498;18.544;2023-11-19T14:07:32;99820.40;;;1.70
71205;BMP180;58935;54.498;18.544;2023-11-19T14:09:58;99813.20;;;1.70
71205;BMP180;58935;54.498;18.544;2023-11-19T14:12:23;99806.60;;;1.70
71205;BMP180;58935;54.498;18.544;2023-11-19T14:14:49;99809.40;;;1.70